1966 MISSING (1966201N21156)


On this page: IBTrACS data - Map and Plots - Positions - Intensities - Original source data

Summary

Start Jul 20
End Jul 30
Basin WP
LMI 29 kt
Source cma
In WMO? No
Previous storm 1966 MISSING (WP)
Previous in basin 1966 MISSING (WP)
Concurrent storms 1966 CELIA (NA)
1966 NINA (WP)
1966 MISSING (WP)
1966 MISSING (WP)
1966 ELLA (NA)
1966 ORA (WP)
1966 DOROTHY (NA)
1966 07B (NI)
1966 PHYLLIS (WP)
Next in basin 1966 ORA (WP)
Next storm 1966 ELLA (NA)

top of page IBTrACS Data: File Access

No storm imagery available

top of page Plots:

Map of storm track will not appear if FTP is down
Time series of cyclone Maximum Sustained Wind will not appear if FTP is down
Time series of cyclone Minimum Central Pressure will not appear if FTP is down

top of page Track Data:Position

cma
Date Lat Lon
1966-07-20 00:00:00 21.0 156.0
1966-07-20 06:00:00 20.9 154.9
1966-07-20 12:00:00 21.2 153.8
1966-07-20 18:00:00 21.6 153.0
1966-07-21 00:00:00 22.0 152.2
1966-07-21 06:00:00 22.3 151.5
1966-07-21 12:00:00 22.5 150.8
1966-07-21 18:00:00 22.6 150.2
1966-07-22 00:00:00 22.8 149.5
1966-07-22 06:00:00 23.0 148.9
1966-07-22 12:00:00 23.1 148.2
1966-07-22 18:00:00 23.2 147.6
1966-07-23 00:00:00 23.4 147.0
1966-07-23 06:00:00 23.7 146.4
1966-07-23 12:00:00 24.1 145.9
1966-07-23 18:00:00 24.5 145.4
1966-07-24 00:00:00 24.9 144.9
1966-07-24 06:00:00 25.3 144.5
1966-07-24 12:00:00 25.7 144.1
1966-07-24 18:00:00 26.2 143.7
1966-07-25 00:00:00 26.5 143.2
1966-07-25 06:00:00 26.8 142.6
1966-07-25 12:00:00 27.0 141.7
1966-07-25 18:00:00 27.0 140.6
1966-07-26 00:00:00 26.6 139.5
cma
1966-07-26 06:00:00 26.0 138.5
1966-07-26 12:00:00 25.4 136.8
1966-07-26 18:00:00 25.3 135.3
1966-07-27 00:00:00 25.2 134.0
1966-07-27 06:00:00 25.1 132.5
1966-07-27 12:00:00 25.0 131.1
1966-07-27 18:00:00 24.8 129.4
1966-07-28 00:00:00 24.5 128.0
1966-07-28 06:00:00 24.2 127.0
1966-07-28 12:00:00 23.6 125.7
1966-07-28 18:00:00 23.0 124.4
1966-07-29 00:00:00 22.7 123.0
1966-07-29 06:00:00 23.5 122.1
1966-07-29 12:00:00 24.5 121.3
1966-07-29 18:00:00 25.3 120.7
1966-07-30 00:00:00 26.3 120.3

top of pageTrack Data:Intensity

cma
Date Wind Pres
1966-07-20 00:00:00 1012.
1966-07-20 06:00:00 1012.
1966-07-20 12:00:00 1010.
1966-07-20 18:00:00 1008.
1966-07-21 00:00:00 1008.
1966-07-21 06:00:00 1008.
1966-07-21 12:00:00 1008.
1966-07-21 18:00:00 1008.
1966-07-22 00:00:00 1008.
1966-07-22 06:00:00 1008.
1966-07-22 12:00:00 1008.
1966-07-22 18:00:00 1008.
1966-07-23 00:00:00 1008.
1966-07-23 06:00:00 1008.
1966-07-23 12:00:00 1008.
1966-07-23 18:00:00 1008.
1966-07-24 00:00:00 1008.
1966-07-24 06:00:00 1008.
1966-07-24 12:00:00 1007.
1966-07-24 18:00:00 1007.
1966-07-25 00:00:00 1007.
1966-07-25 06:00:00 29. 1005.
1966-07-25 12:00:00 29. 1005.
1966-07-25 18:00:00 29. 1005.
1966-07-26 00:00:00 29. 1004.
cma
1966-07-26 06:00:00 29. 1002.
1966-07-26 12:00:00 29. 1000.
1966-07-26 18:00:00 29. 1002.
1966-07-27 00:00:00 29. 1002.
1966-07-27 06:00:00 29. 1003.
1966-07-27 12:00:00 29. 1004.
1966-07-27 18:00:00 29. 1004.
1966-07-28 00:00:00 29. 1004.
1966-07-28 06:00:00 29. 1002.
1966-07-28 12:00:00 29. 1002.
1966-07-28 18:00:00 29. 1002.
1966-07-29 00:00:00 29. 1002.
1966-07-29 06:00:00 19. 1002.
1966-07-29 12:00:00 19. 1003.
1966-07-29 18:00:00 19. 1004.
1966-07-30 00:00:00 19. 1005.

top of page Links to source data

Source Source file Format
cma CH1966BST.txt:Storm=9:(nameless) CMA text table